sensor_id;sensor_type;location;lat;lon;timestamp;P1;durP1;ratioP1;P2;durP2;ratioP2
6376;SDS011;3221;48.858;10.128;2023-09-19T00:00:43;1.63;;;1.47;;
6376;SDS011;3221;48.858;10.128;2023-09-19T00:03:13;1.40;;;1.10;;
6376;SDS011;3221;48.858;10.128;2023-09-19T00:05:40;1.33;;;1.23;;
6376;SDS011;3221;48.858;10.128;2023-09-19T00:08:11;2.40;;;1.40;;
6376;SDS011;3221;48.858;10.128;2023-09-19T00:10:42;3.10;;;1.40;;
6376;SDS011;3221;48.858;10.128;2023-09-19T00:13:10;1.57;;;1.40;;
6376;SDS011;3221;48.858;10.128;2023-09-19T00:15:44;1.67;;;1.20;;
6376;SDS011;3221;48.858;10.128;2023-09-19T00:18:19;3.23;;;1.37;;
6376;SDS011;3221;48.858;10.128;2023-09-19T00:20:49;2.23;;;1.20;;
6376;SDS011;3221;48.858;10.128;2023-09-19T00:23:17;3.00;;;1.27;;
6376;SDS011;3221;48.858;10.128;2023-09-19T00:25:46;1.90;;;1.27;;
6376;SDS011;3221;48.858;10.128;2023-09-19T00:28:12;1.73;;;1.20;;
6376;SDS011;3221;48.858;10.128;2023-09-19T00:30:43;3.60;;;1.30;;
6376;SDS011;3221;48.858;10.128;2023-09-19T00:33:10;1.83;;;1.40;;
6376;SDS011;3221;48.858;10.128;2023-09-19T00:35:53;2.43;;;1.50;;
6376;SDS011;3221;48.858;10.128;2023-09-19T00:38:21;2.57;;;1.40;;
6376;SDS011;3221;48.858;10.128;2023-09-19T00:40:53;1.80;;;1.37;;
6376;SDS011;3221;48.858;10.128;2023-09-19T00:43:24;2.13;;;1.60;;
6376;SDS011;3221;48.858;10.128;2023-09-19T00:45:52;3.23;;;1.50;;
6376;SDS011;3221;48.858;10.128;2023-09-19T00:48:21;1.77;;;1.63;;
6376;SDS011;3221;48.858;10.128;2023-09-19T00:50:49;1.80;;;1.70;;
6376;SDS011;3221;48.858;10.128;2023-09-19T00:53:18;4.13;;;1.90;;
6376;SDS011;3221;48.858;10.128;2023-09-19T00:55:47;2.53;;;1.57;;
6376;SDS011;3221;48.858;10.128;2023-09-19T00:58:16;2.83;;;1.50;;
6376;SDS011;3221;48.858;10.128;2023-09-19T01:00:44;1.80;;;1.40;;
6376;SDS011;3221;48.858;10.128;2023-09-19T01:03:12;2.83;;;1.80;;
6376;SDS011;3221;48.858;10.128;2023-09-19T01:05:40;2.30;;;1.27;;
6376;SDS011;3221;48.858;10.128;2023-09-19T01:08:07;2.50;;;1.60;;
6376;SDS011;3221;48.858;10.128;2023-09-19T01:10:33;3.30;;;1.30;;
6376;SDS011;3221;48.858;10.128;2023-09-19T01:13:46;2.13;;;1.70;;
6376;SDS011;3221;48.858;10.128;2023-09-19T01:24:34;2.00;;;1.90;;
6376;SDS011;3221;48.858;10.128;2023-09-19T01:30:35;2.13;;;1.50;;
6376;SDS011;3221;48.858;10.128;2023-09-19T01:33:06;1.50;;;1.40;;
6376;SDS011;3221;48.858;10.128;2023-09-19T01:35:34;1.90;;;1.40;;
6376;SDS011;3221;48.858;10.128;2023-09-19T01:38:08;1.40;;;1.30;;
6376;SDS011;3221;48.858;10.128;2023-09-19T01:40:41;1.57;;;1.40;;
6376;SDS011;3221;48.858;10.128;2023-09-19T01:46:04;1.50;;;1.40;;
6376;SDS011;3221;48.858;10.128;2023-09-19T01:48:46;2.80;;;1.50;;
6376;SDS011;3221;48.858;10.128;2023-09-19T01:51:20;2.57;;;1.40;;
6376;SDS011;3221;48.858;10.128;2023-09-19T01:53:59;1.27;;;1.10;;
6376;SDS011;3221;48.858;10.128;2023-09-19T01:56:32;1.23;;;1.13;;
6376;SDS011;3221;48.858;10.128;2023-09-19T01:59:23;1.57;;;1.10;;
6376;SDS011;3221;48.858;10.128;2023-09-19T02:01:54;1.10;;;1.00;;
6376;SDS011;3221;48.858;10.128;2023-09-19T02:04:21;1.80;;;1.20;;
6376;SDS011;3221;48.858;10.128;2023-09-19T02:06:48;1.63;;;1.20;;
6376;SDS011;3221;48.858;10.128;2023-09-19T02:09:15;1.73;;;1.00;;
6376;SDS011;3221;48.858;10.128;2023-09-19T02:11:42;1.00;;;0.90;;
6376;SDS011;3221;48.858;10.128;2023-09-19T02:14:09;1.27;;;1.17;;
6376;SDS011;3221;48.858;10.128;2023-09-19T02:16:36;1.40;;;1.20;;
6376;SDS011;3221;48.858;10.128;2023-09-19T02:19:03;1.53;;;1.10;;
6376;SDS011;3221;48.858;10.128;2023-09-19T02:21:32;1.53;;;1.00;;
6376;SDS011;3221;48.858;10.128;2023-09-19T02:23:59;1.20;;;1.10;;
6376;SDS011;3221;48.858;10.128;2023-09-19T02:26:26;1.43;;;1.00;;
6376;SDS011;3221;48.858;10.128;2023-09-19T02:28:54;1.57;;;1.17;;
6376;SDS011;3221;48.858;10.128;2023-09-19T02:31:20;1.20;;;1.10;;
6376;SDS011;3221;48.858;10.128;2023-09-19T02:33:48;2.40;;;1.50;;
6376;SDS011;3221;48.858;10.128;2023-09-19T02:36:14;2.53;;;1.47;;
6376;SDS011;3221;48.858;10.128;2023-09-19T02:38:43;1.63;;;1.10;;
6376;SDS011;3221;48.858;10.128;2023-09-19T02:43:45;1.63;;;1.40;;
6376;SDS011;3221;48.858;10.128;2023-09-19T02:46:13;1.57;;;1.13;;
6376;SDS011;3221;48.858;10.128;2023-09-19T02:48:40;1.20;;;1.10;;
6376;SDS011;3221;48.858;10.128;2023-09-19T02:51:08;2.47;;;1.40;;
6376;SDS011;3221;48.858;10.128;2023-09-19T02:53:35;1.27;;;1.17;;
6376;SDS011;3221;48.858;10.128;2023-09-19T02:56:02;1.20;;;1.07;;
6376;SDS011;3221;48.858;10.128;2023-09-19T02:58:30;1.03;;;1.00;;
6376;SDS011;3221;48.858;10.128;2023-09-19T03:01:10;1.30;;;1.20;;
6376;SDS011;3221;48.858;10.128;2023-09-19T03:03:39;2.03;;;1.40;;
6376;SDS011;3221;48.858;10.128;2023-09-19T03:06:06;2.37;;;1.50;;
6376;SDS011;3221;48.858;10.128;2023-09-19T03:08:35;1.90;;;1.10;;
6376;SDS011;3221;48.858;10.128;2023-09-19T03:11:03;2.20;;;1.40;;
6376;SDS011;3221;48.858;10.128;2023-09-19T03:13:32;3.07;;;1.50;;
6376;SDS011;3221;48.858;10.128;2023-09-19T03:15:59;1.73;;;1.47;;
6376;SDS011;3221;48.858;10.128;2023-09-19T03:18:27;2.50;;;1.40;;
6376;SDS011;3221;48.858;10.128;2023-09-19T03:20:55;1.50;;;1.17;;
6376;SDS011;3221;48.858;10.128;2023-09-19T03:23:22;1.70;;;1.40;;
6376;SDS011;3221;48.858;10.128;2023-09-19T03:25:49;1.80;;;1.30;;
6376;SDS011;3221;48.858;10.128;2023-09-19T03:28:18;2.13;;;1.10;;
6376;SDS011;3221;48.858;10.128;2023-09-19T03:31:00;1.40;;;1.30;;
6376;SDS011;3221;48.858;10.128;2023-09-19T03:33:30;2.20;;;1.20;;
6376;SDS011;3221;48.858;10.128;2023-09-19T03:36:01;1.30;;;1.13;;
6376;SDS011;3221;48.858;10.128;2023-09-19T03:38:32;1.87;;;1.03;;
6376;SDS011;3221;48.858;10.128;2023-09-19T03:41:01;1.47;;;1.30;;
6376;SDS011;3221;48.858;10.128;2023-09-19T03:43:28;2.10;;;1.20;;
6376;SDS011;3221;48.858;10.128;2023-09-19T03:45:55;2.43;;;1.27;;
6376;SDS011;3221;48.858;10.128;2023-09-19T03:48:23;1.80;;;1.27;;
6376;SDS011;3221;48.858;10.128;2023-09-19T03:50:50;3.67;;;1.70;;
6376;SDS011;3221;48.858;10.128;2023-09-19T03:53:19;2.83;;;1.43;;
6376;SDS011;3221;48.858;10.128;2023-09-19T03:55:45;1.77;;;1.30;;
6376;SDS011;3221;48.858;10.128;2023-09-19T03:58:13;2.50;;;1.60;;
6376;SDS011;3221;48.858;10.128;2023-09-19T04:00:40;1.93;;;1.20;;
6376;SDS011;3221;48.858;10.128;2023-09-19T04:03:07;1.30;;;1.20;;
6376;SDS011;3221;48.858;10.128;2023-09-19T04:05:34;1.80;;;1.40;;
6376;SDS011;3221;48.858;10.128;2023-09-19T04:08:01;2.37;;;1.30;;
6376;SDS011;3221;48.858;10.128;2023-09-19T04:10:28;1.97;;;1.37;;
6376;SDS011;3221;48.858;10.128;2023-09-19T04:12:55;2.73;;;1.27;;
6376;SDS011;3221;48.858;10.128;2023-09-19T04:15:23;2.00;;;1.30;;
6376;SDS011;3221;48.858;10.128;2023-09-19T04:17:52;1.53;;;1.30;;
6376;SDS011;3221;48.858;10.128;2023-09-19T04:20:19;1.70;;;1.40;;
6376;SDS011;3221;48.858;10.128;2023-09-19T04:22:49;1.50;;;1.40;;
6376;SDS011;3221;48.858;10.128;2023-09-19T04:25:16;1.60;;;1.43;;
6376;SDS011;3221;48.858;10.128;2023-09-19T04:27:43;1.57;;;1.20;;
6376;SDS011;3221;48.858;10.128;2023-09-19T04:30:10;1.50;;;1.40;;
6376;SDS011;3221;48.858;10.128;2023-09-19T04:32:38;2.00;;;1.83;;
6376;SDS011;3221;48.858;10.128;2023-09-19T04:35:09;2.27;;;1.83;;
6376;SDS011;3221;48.858;10.128;2023-09-19T04:37:38;1.90;;;1.70;;
6376;SDS011;3221;48.858;10.128;2023-09-19T04:40:06;1.53;;;1.33;;
6376;SDS011;3221;48.858;10.128;2023-09-19T04:42:44;2.10;;;1.47;;
6376;SDS011;3221;48.858;10.128;2023-09-19T04:45:12;1.83;;;1.47;;
6376;SDS011;3221;48.858;10.128;2023-09-19T04:47:39;2.57;;;1.60;;
6376;SDS011;3221;48.858;10.128;2023-09-19T04:50:07;1.77;;;1.60;;
6376;SDS011;3221;48.858;10.128;2023-09-19T04:52:41;1.93;;;1.67;;
6376;SDS011;3221;48.858;10.128;2023-09-19T04:55:09;2.53;;;2.00;;
6376;SDS011;3221;48.858;10.128;2023-09-19T04:57:49;2.93;;;2.33;;
6376;SDS011;3221;48.858;10.128;2023-09-19T05:00:17;2.30;;;2.10;;
6376;SDS011;3221;48.858;10.128;2023-09-19T05:02:50;2.03;;;1.80;;
6376;SDS011;3221;48.858;10.128;2023-09-19T05:05:18;2.53;;;2.10;;
6376;SDS011;3221;48.858;10.128;2023-09-19T05:07:49;2.13;;;1.70;;
6376;SDS011;3221;48.858;10.128;2023-09-19T05:10:17;3.23;;;2.40;;
6376;SDS011;3221;48.858;10.128;2023-09-19T05:12:45;4.23;;;2.73;;
6376;SDS011;3221;48.858;10.128;2023-09-19T05:15:14;3.17;;;2.50;;
6376;SDS011;3221;48.858;10.128;2023-09-19T05:17:49;2.67;;;2.13;;
6376;SDS011;3221;48.858;10.128;2023-09-19T05:20:23;2.83;;;2.00;;
6376;SDS011;3221;48.858;10.128;2023-09-19T05:23:00;1.70;;;1.60;;
6376;SDS011;3221;48.858;10.128;2023-09-19T05:25:29;2.43;;;1.60;;
6376;SDS011;3221;48.858;10.128;2023-09-19T05:27:58;1.80;;;1.40;;
6376;SDS011;3221;48.858;10.128;2023-09-19T05:30:26;2.40;;;1.63;;
6376;SDS011;3221;48.858;10.128;2023-09-19T05:32:53;2.03;;;1.50;;
6376;SDS011;3221;48.858;10.128;2023-09-19T05:35:21;3.43;;;1.73;;
6376;SDS011;3221;48.858;10.128;2023-09-19T05:37:52;2.27;;;1.50;;
6376;SDS011;3221;48.858;10.128;2023-09-19T05:40:21;3.17;;;1.70;;
6376;SDS011;3221;48.858;10.128;2023-09-19T05:42:47;2.63;;;1.60;;
6376;SDS011;3221;48.858;10.128;2023-09-19T05:45:16;2.43;;;1.60;;
6376;SDS011;3221;48.858;10.128;2023-09-19T05:47:49;7.67;;;2.67;;
6376;SDS011;3221;48.858;10.128;2023-09-19T05:50:17;4.57;;;3.20;;
6376;SDS011;3221;48.858;10.128;2023-09-19T05:52:51;4.13;;;3.40;;
6376;SDS011;3221;48.858;10.128;2023-09-19T05:55:19;3.67;;;3.10;;
6376;SDS011;3221;48.858;10.128;2023-09-19T05:57:50;3.90;;;3.30;;
6376;SDS011;3221;48.858;10.128;2023-09-19T06:00:18;4.00;;;2.87;;
6376;SDS011;3221;48.858;10.128;2023-09-19T06:02:53;3.13;;;2.50;;
6376;SDS011;3221;48.858;10.128;2023-09-19T06:07:53;4.70;;;3.03;;
6376;SDS011;3221;48.858;10.128;2023-09-19T06:10:20;3.73;;;2.77;;
6376;SDS011;3221;48.858;10.128;2023-09-19T06:12:49;5.43;;;2.90;;
6376;SDS011;3221;48.858;10.128;2023-09-19T06:15:16;3.90;;;2.50;;
6376;SDS011;3221;48.858;10.128;2023-09-19T06:17:49;2.60;;;2.03;;
6376;SDS011;3221;48.858;10.128;2023-09-19T06:20:24;2.57;;;2.37;;
6376;SDS011;3221;48.858;10.128;2023-09-19T06:22:52;5.13;;;3.30;;
6376;SDS011;3221;48.858;10.128;2023-09-19T06:25:20;4.23;;;2.63;;
6376;SDS011;3221;48.858;10.128;2023-09-19T06:27:49;3.27;;;2.67;;
6376;SDS011;3221;48.858;10.128;2023-09-19T06:30:21;4.73;;;3.00;;
6376;SDS011;3221;48.858;10.128;2023-09-19T06:32:58;3.53;;;2.80;;
6376;SDS011;3221;48.858;10.128;2023-09-19T06:35:27;2.53;;;2.00;;
6376;SDS011;3221;48.858;10.128;2023-09-19T06:37:59;2.10;;;1.70;;
6376;SDS011;3221;48.858;10.128;2023-09-19T06:40:29;3.30;;;1.60;;
6376;SDS011;3221;48.858;10.128;2023-09-19T06:42:57;2.47;;;1.73;;
6376;SDS011;3221;48.858;10.128;2023-09-19T06:45:24;2.20;;;2.00;;
6376;SDS011;3221;48.858;10.128;2023-09-19T06:47:52;2.57;;;2.17;;
6376;SDS011;3221;48.858;10.128;2023-09-19T06:50:24;2.30;;;2.07;;
6376;SDS011;3221;48.858;10.128;2023-09-19T06:52:52;2.80;;;2.30;;
6376;SDS011;3221;48.858;10.128;2023-09-19T06:55:21;2.70;;;2.00;;
6376;SDS011;3221;48.858;10.128;2023-09-19T06:57:55;2.37;;;2.00;;
6376;SDS011;3221;48.858;10.128;2023-09-19T07:00:22;2.47;;;2.17;;
6376;SDS011;3221;48.858;10.128;2023-09-19T07:02:56;2.87;;;2.00;;
6376;SDS011;3221;48.858;10.128;2023-09-19T07:05:25;2.60;;;1.70;;
6376;SDS011;3221;48.858;10.128;2023-09-19T07:07:53;3.17;;;1.57;;
6376;SDS011;3221;48.858;10.128;2023-09-19T07:10:25;1.80;;;1.37;;
6376;SDS011;3221;48.858;10.128;2023-09-19T07:15:28;2.13;;;1.60;;
6376;SDS011;3221;48.858;10.128;2023-09-19T07:17:57;2.00;;;1.50;;
6376;SDS011;3221;48.858;10.128;2023-09-19T07:20:24;2.70;;;1.70;;
6376;SDS011;3221;48.858;10.128;2023-09-19T07:22:58;2.80;;;2.20;;
6376;SDS011;3221;48.858;10.128;2023-09-19T07:25:28;2.63;;;2.40;;
6376;SDS011;3221;48.858;10.128;2023-09-19T07:27:55;3.57;;;2.50;;
6376;SDS011;3221;48.858;10.128;2023-09-19T07:30:26;3.37;;;2.40;;
6376;SDS011;3221;48.858;10.128;2023-09-19T07:32:54;3.70;;;2.20;;
6376;SDS011;3221;48.858;10.128;2023-09-19T07:35:21;3.33;;;1.83;;
6376;SDS011;3221;48.858;10.128;2023-09-19T07:37:48;2.37;;;1.70;;
6376;SDS011;3221;48.858;10.128;2023-09-19T07:40:17;3.13;;;2.10;;
6376;SDS011;3221;48.858;10.128;2023-09-19T07:42:45;2.83;;;2.37;;
6376;SDS011;3221;48.858;10.128;2023-09-19T07:45:13;3.27;;;2.67;;
6376;SDS011;3221;48.858;10.128;2023-09-19T07:47:44;3.70;;;2.83;;
6376;SDS011;3221;48.858;10.128;2023-09-19T07:50:16;3.20;;;2.40;;
6376;SDS011;3221;48.858;10.128;2023-09-19T07:52:45;2.00;;;1.80;;
6376;SDS011;3221;48.858;10.128;2023-09-19T07:55:13;2.57;;;2.10;;
6376;SDS011;3221;48.858;10.128;2023-09-19T07:57:43;4.30;;;2.23;;
6376;SDS011;3221;48.858;10.128;2023-09-19T08:00:10;2.80;;;1.93;;
6376;SDS011;3221;48.858;10.128;2023-09-19T08:02:38;5.47;;;2.77;;
6376;SDS011;3221;48.858;10.128;2023-09-19T08:05:06;3.33;;;2.20;;
6376;SDS011;3221;48.858;10.128;2023-09-19T08:07:38;3.37;;;2.30;;
6376;SDS011;3221;48.858;10.128;2023-09-19T08:10:06;3.93;;;2.00;;
6376;SDS011;3221;48.858;10.128;2023-09-19T08:12:34;2.67;;;2.17;;
6376;SDS011;3221;48.858;10.128;2023-09-19T08:15:05;3.70;;;2.03;;
6376;SDS011;3221;48.858;10.128;2023-09-19T08:17:34;4.13;;;1.97;;
6376;SDS011;3221;48.858;10.128;2023-09-19T08:20:02;3.90;;;2.30;;
6376;SDS011;3221;48.858;10.128;2023-09-19T08:22:31;4.23;;;2.57;;
6376;SDS011;3221;48.858;10.128;2023-09-19T08:24:59;3.40;;;2.20;;
6376;SDS011;3221;48.858;10.128;2023-09-19T08:27:25;4.00;;;2.30;;
6376;SDS011;3221;48.858;10.128;2023-09-19T08:29:55;4.57;;;2.20;;
6376;SDS011;3221;48.858;10.128;2023-09-19T08:32:22;4.03;;;2.30;;
6376;SDS011;3221;48.858;10.128;2023-09-19T08:34:50;3.57;;;2.43;;
6376;SDS011;3221;48.858;10.128;2023-09-19T08:37:17;3.67;;;2.37;;
6376;SDS011;3221;48.858;10.128;2023-09-19T08:39:45;4.07;;;2.20;;
6376;SDS011;3221;48.858;10.128;2023-09-19T08:42:12;3.30;;;2.20;;
6376;SDS011;3221;48.858;10.128;2023-09-19T08:44:39;4.53;;;3.07;;
6376;SDS011;3221;48.858;10.128;2023-09-19T08:47:10;8.43;;;5.43;;
6376;SDS011;3221;48.858;10.128;2023-09-19T08:49:49;9.73;;;5.40;;
6376;SDS011;3221;48.858;10.128;2023-09-19T08:52:45;5.73;;;3.87;;
6376;SDS011;3221;48.858;10.128;2023-09-19T08:55:16;5.83;;;2.80;;
6376;SDS011;3221;48.858;10.128;2023-09-19T08:57:49;4.27;;;3.17;;
6376;SDS011;3221;48.858;10.128;2023-09-19T09:00:18;4.90;;;3.60;;
6376;SDS011;3221;48.858;10.128;2023-09-19T09:02:47;4.67;;;3.20;;
6376;SDS011;3221;48.858;10.128;2023-09-19T09:05:15;4.90;;;2.90;;
6376;SDS011;3221;48.858;10.128;2023-09-19T09:07:49;2.63;;;2.20;;
6376;SDS011;3221;48.858;10.128;2023-09-19T09:10:18;2.47;;;2.10;;
6376;SDS011;3221;48.858;10.128;2023-09-19T09:12:52;3.80;;;2.50;;
6376;SDS011;3221;48.858;10.128;2023-09-19T09:15:22;3.23;;;2.10;;
6376;SDS011;3221;48.858;10.128;2023-09-19T09:17:50;4.80;;;2.50;;
6376;SDS011;3221;48.858;10.128;2023-09-19T09:20:21;2.53;;;2.27;;
6376;SDS011;3221;48.858;10.128;2023-09-19T09:22:51;4.30;;;2.77;;
6376;SDS011;3221;48.858;10.128;2023-09-19T09:25:22;3.40;;;2.70;;
6376;SDS011;3221;48.858;10.128;2023-09-19T09:27:58;4.63;;;2.70;;
6376;SDS011;3221;48.858;10.128;2023-09-19T09:30:35;3.53;;;2.70;;
6376;SDS011;3221;48.858;10.128;2023-09-19T09:33:10;3.00;;;2.70;;
6376;SDS011;3221;48.858;10.128;2023-09-19T09:35:52;4.73;;;3.10;;
6376;SDS011;3221;48.858;10.128;2023-09-19T09:38:24;5.87;;;3.83;;
6376;SDS011;3221;48.858;10.128;2023-09-19T09:40:59;3.80;;;3.50;;
6376;SDS011;3221;48.858;10.128;2023-09-19T09:43:34;4.27;;;3.30;;
6376;SDS011;3221;48.858;10.128;2023-09-19T09:46:07;3.13;;;2.83;;
6376;SDS011;3221;48.858;10.128;2023-09-19T09:49:04;5.43;;;3.20;;
6376;SDS011;3221;48.858;10.128;2023-09-19T09:54:24;4.07;;;3.00;;
6376;SDS011;3221;48.858;10.128;2023-09-19T09:56:58;3.10;;;2.67;;
6376;SDS011;3221;48.858;10.128;2023-09-19T10:02:26;3.77;;;2.50;;
6376;SDS011;3221;48.858;10.128;2023-09-19T10:07:50;2.80;;;2.50;;
6376;SDS011;3221;48.858;10.128;2023-09-19T10:10:32;4.20;;;2.77;;
6376;SDS011;3221;48.858;10.128;2023-09-19T10:13:10;3.53;;;2.23;;
6376;SDS011;3221;48.858;10.128;2023-09-19T10:15:48;2.47;;;2.27;;
6376;SDS011;3221;48.858;10.128;2023-09-19T10:18:37;3.27;;;2.43;;
6376;SDS011;3221;48.858;10.128;2023-09-19T10:21:06;3.87;;;2.73;;
6376;SDS011;3221;48.858;10.128;2023-09-19T10:23:36;2.83;;;2.37;;
6376;SDS011;3221;48.858;10.128;2023-09-19T10:26:04;2.83;;;2.40;;
6376;SDS011;3221;48.858;10.128;2023-09-19T10:28:32;3.17;;;2.07;;
6376;SDS011;3221;48.858;10.128;2023-09-19T10:31:01;2.40;;;2.20;;
6376;SDS011;3221;48.858;10.128;2023-09-19T10:33:29;2.83;;;2.30;;
6376;SDS011;3221;48.858;10.128;2023-09-19T10:36:03;2.87;;;2.13;;
6376;SDS011;3221;48.858;10.128;2023-09-19T10:38:31;2.63;;;2.03;;
6376;SDS011;3221;48.858;10.128;2023-09-19T10:41:02;3.37;;;2.37;;
6376;SDS011;3221;48.858;10.128;2023-09-19T10:43:30;3.20;;;2.33;;
6376;SDS011;3221;48.858;10.128;2023-09-19T10:46:02;3.43;;;2.83;;
6376;SDS011;3221;48.858;10.128;2023-09-19T10:48:33;3.83;;;3.00;;
6376;SDS011;3221;48.858;10.128;2023-09-19T10:53:48;2.70;;;2.37;;
6376;SDS011;3221;48.858;10.128;2023-09-19T10:56:19;3.27;;;2.40;;
6376;SDS011;3221;48.858;10.128;2023-09-19T10:58:51;3.30;;;2.43;;
6376;SDS011;3221;48.858;10.128;2023-09-19T11:01:18;3.30;;;2.50;;
6376;SDS011;3221;48.858;10.128;2023-09-19T11:03:46;2.93;;;2.27;;
6376;SDS011;3221;48.858;10.128;2023-09-19T11:06:16;4.13;;;2.33;;
6376;SDS011;3221;48.858;10.128;2023-09-19T11:08:54;2.77;;;2.40;;
6376;SDS011;3221;48.858;10.128;2023-09-19T11:30:45;3.50;;;2.00;;
6376;SDS011;3221;48.858;10.128;2023-09-19T11:33:17;2.77;;;2.10;;
6376;SDS011;3221;48.858;10.128;2023-09-19T11:43:53;1.80;;;1.60;;
6376;SDS011;3221;48.858;10.128;2023-09-19T11:46:27;1.50;;;1.40;;
6376;SDS011;3221;48.858;10.128;2023-09-19T11:48:55;2.93;;;2.00;;
6376;SDS011;3221;48.858;10.128;2023-09-19T11:51:42;3.00;;;1.80;;
6376;SDS011;3221;48.858;10.128;2023-09-19T11:54:14;2.10;;;1.70;;
6376;SDS011;3221;48.858;10.128;2023-09-19T11:56:45;2.13;;;1.70;;
6376;SDS011;3221;48.858;10.128;2023-09-19T11:59:26;3.30;;;1.93;;
6376;SDS011;3221;48.858;10.128;2023-09-19T12:01:57;2.43;;;1.73;;
6376;SDS011;3221;48.858;10.128;2023-09-19T12:04:36;4.93;;;1.93;;
6376;SDS011;3221;48.858;10.128;2023-09-19T12:09:39;2.80;;;1.60;;
6376;SDS011;3221;48.858;10.128;2023-09-19T12:12:08;2.57;;;1.90;;
6376;SDS011;3221;48.858;10.128;2023-09-19T12:14:36;2.57;;;1.90;;
6376;SDS011;3221;48.858;10.128;2023-09-19T12:17:07;3.57;;;1.70;;
6376;SDS011;3221;48.858;10.128;2023-09-19T12:19:35;3.23;;;2.00;;
6376;SDS011;3221;48.858;10.128;2023-09-19T12:22:02;2.13;;;1.43;;
6376;SDS011;3221;48.858;10.128;2023-09-19T12:24:37;2.60;;;1.90;;
6376;SDS011;3221;48.858;10.128;2023-09-19T12:27:08;2.53;;;1.53;;
6376;SDS011;3221;48.858;10.128;2023-09-19T12:29:46;1.63;;;1.53;;
6376;SDS011;3221;48.858;10.128;2023-09-19T12:32:34;2.70;;;1.70;;
6376;SDS011;3221;48.858;10.128;2023-09-19T12:35:01;2.90;;;1.87;;
6376;SDS011;3221;48.858;10.128;2023-09-19T12:37:34;3.10;;;2.00;;
6376;SDS011;3221;48.858;10.128;2023-09-19T12:40:06;2.87;;;1.80;;
6376;SDS011;3221;48.858;10.128;2023-09-19T12:42:49;1.70;;;1.60;;
6376;SDS011;3221;48.858;10.128;2023-09-19T12:45:16;2.10;;;1.90;;
6376;SDS011;3221;48.858;10.128;2023-09-19T12:51:02;2.10;;;1.90;;
6376;SDS011;3221;48.858;10.128;2023-09-19T12:53:40;3.00;;;2.27;;
6376;SDS011;3221;48.858;10.128;2023-09-19T12:56:17;2.90;;;2.47;;
6376;SDS011;3221;48.858;10.128;2023-09-19T12:58:57;3.20;;;2.50;;
6376;SDS011;3221;48.858;10.128;2023-09-19T13:01:27;2.20;;;2.00;;
6376;SDS011;3221;48.858;10.128;2023-09-19T13:06:47;1.60;;;1.33;;
6376;SDS011;3221;48.858;10.128;2023-09-19T13:09:18;1.97;;;1.70;;
6376;SDS011;3221;48.858;10.128;2023-09-19T13:11:47;3.50;;;1.97;;
6376;SDS011;3221;48.858;10.128;2023-09-19T13:17:03;1.70;;;1.60;;
6376;SDS011;3221;48.858;10.128;2023-09-19T13:25:07;3.17;;;2.73;;
6376;SDS011;3221;48.858;10.128;2023-09-19T13:27:41;2.83;;;2.07;;
6376;SDS011;3221;48.858;10.128;2023-09-19T13:30:33;3.13;;;1.97;;
6376;SDS011;3221;48.858;10.128;2023-09-19T13:33:24;2.00;;;1.70;;
6376;SDS011;3221;48.858;10.128;2023-09-19T13:35:52;2.47;;;1.67;;
6376;SDS011;3221;48.858;10.128;2023-09-19T13:38:28;1.80;;;1.70;;
6376;SDS011;3221;48.858;10.128;2023-09-19T13:41:07;3.73;;;2.00;;
6376;SDS011;3221;48.858;10.128;2023-09-19T13:44:14;2.20;;;2.00;;
6376;SDS011;3221;48.858;10.128;2023-09-19T13:46:42;2.60;;;1.70;;
6376;SDS011;3221;48.858;10.128;2023-09-19T13:49:12;2.23;;;1.80;;
6376;SDS011;3221;48.858;10.128;2023-09-19T13:51:39;2.43;;;1.73;;
6376;SDS011;3221;48.858;10.128;2023-09-19T13:54:10;2.33;;;1.67;;
6376;SDS011;3221;48.858;10.128;2023-09-19T13:56:38;2.27;;;1.60;;
6376;SDS011;3221;48.858;10.128;2023-09-19T13:59:05;1.53;;;1.37;;
6376;SDS011;3221;48.858;10.128;2023-09-19T14:01:32;2.23;;;1.70;;
6376;SDS011;3221;48.858;10.128;2023-09-19T14:03:59;1.87;;;1.50;;
6376;SDS011;3221;48.858;10.128;2023-09-19T14:06:26;1.70;;;1.60;;
6376;SDS011;3221;48.858;10.128;2023-09-19T14:08:53;1.83;;;1.67;;
6376;SDS011;3221;48.858;10.128;2023-09-19T14:11:20;2.47;;;1.80;;
6376;SDS011;3221;48.858;10.128;2023-09-19T14:13:47;2.87;;;1.90;;
6376;SDS011;3221;48.858;10.128;2023-09-19T14:16:16;2.23;;;1.47;;
6376;SDS011;3221;48.858;10.128;2023-09-19T14:18:44;3.17;;;1.50;;
6376;SDS011;3221;48.858;10.128;2023-09-19T14:21:12;2.53;;;1.40;;
6376;SDS011;3221;48.858;10.128;2023-09-19T14:23:40;1.57;;;1.37;;
6376;SDS011;3221;48.858;10.128;2023-09-19T14:26:09;1.77;;;1.30;;
6376;SDS011;3221;48.858;10.128;2023-09-19T14:28:36;1.47;;;1.37;;
6376;SDS011;3221;48.858;10.128;2023-09-19T14:31:06;2.20;;;1.50;;
6376;SDS011;3221;48.858;10.128;2023-09-19T14:33:34;1.73;;;1.40;;
6376;SDS011;3221;48.858;10.128;2023-09-19T14:36:05;3.23;;;1.87;;
6376;SDS011;3221;48.858;10.128;2023-09-19T14:38:33;3.77;;;1.80;;
6376;SDS011;3221;48.858;10.128;2023-09-19T14:41:04;1.57;;;1.47;;
6376;SDS011;3221;48.858;10.128;2023-09-19T14:43:32;1.90;;;1.40;;
6376;SDS011;3221;48.858;10.128;2023-09-19T14:46:05;1.90;;;1.40;;
6376;SDS011;3221;48.858;10.128;2023-09-19T14:48:37;1.90;;;1.50;;
6376;SDS011;3221;48.858;10.128;2023-09-19T14:51:07;1.87;;;1.60;;
6376;SDS011;3221;48.858;10.128;2023-09-19T14:53:35;1.50;;;1.40;;
6376;SDS011;3221;48.858;10.128;2023-09-19T14:56:04;2.03;;;1.60;;
6376;SDS011;3221;48.858;10.128;2023-09-19T14:58:38;1.80;;;1.63;;
6376;SDS011;3221;48.858;10.128;2023-09-19T15:01:06;2.27;;;1.50;;
6376;SDS011;3221;48.858;10.128;2023-09-19T15:03:37;1.60;;;1.50;;
6376;SDS011;3221;48.858;10.128;2023-09-19T15:06:06;2.57;;;1.63;;
6376;SDS011;3221;48.858;10.128;2023-09-19T15:08:45;1.50;;;1.40;;
6376;SDS011;3221;48.858;10.128;2023-09-19T15:11:15;1.57;;;1.47;;
6376;SDS011;3221;48.858;10.128;2023-09-19T15:13:44;1.50;;;1.40;;
6376;SDS011;3221;48.858;10.128;2023-09-19T15:16:13;1.60;;;1.50;;
6376;SDS011;3221;48.858;10.128;2023-09-19T15:18:41;1.73;;;1.30;;
6376;SDS011;3221;48.858;10.128;2023-09-19T15:21:09;1.90;;;1.63;;
6376;SDS011;3221;48.858;10.128;2023-09-19T15:23:38;1.60;;;1.50;;
6376;SDS011;3221;48.858;10.128;2023-09-19T15:26:06;2.90;;;1.70;;
6376;SDS011;3221;48.858;10.128;2023-09-19T15:28:35;2.67;;;1.80;;
6376;SDS011;3221;48.858;10.128;2023-09-19T15:31:04;2.13;;;1.93;;
6376;SDS011;3221;48.858;10.128;2023-09-19T15:33:35;2.47;;;2.27;;
6376;SDS011;3221;48.858;10.128;2023-09-19T15:36:12;2.77;;;2.50;;
6376;SDS011;3221;48.858;10.128;2023-09-19T15:41:26;4.63;;;2.60;;
6376;SDS011;3221;48.858;10.128;2023-09-19T15:43:53;4.17;;;3.37;;
6376;SDS011;3221;48.858;10.128;2023-09-19T15:46:21;3.47;;;2.90;;
6376;SDS011;3221;48.858;10.128;2023-09-19T15:48:48;4.07;;;2.97;;
6376;SDS011;3221;48.858;10.128;2023-09-19T15:51:15;4.93;;;2.83;;
6376;SDS011;3221;48.858;10.128;2023-09-19T15:53:46;3.50;;;2.87;;
6376;SDS011;3221;48.858;10.128;2023-09-19T15:56:15;3.47;;;2.80;;
6376;SDS011;3221;48.858;10.128;2023-09-19T15:58:47;4.47;;;2.70;;
6376;SDS011;3221;48.858;10.128;2023-09-19T16:01:16;4.03;;;2.30;;
6376;SDS011;3221;48.858;10.128;2023-09-19T16:03:45;3.70;;;2.47;;
6376;SDS011;3221;48.858;10.128;2023-09-19T16:06:15;3.83;;;2.27;;
6376;SDS011;3221;48.858;10.128;2023-09-19T16:08:47;3.20;;;2.30;;
6376;SDS011;3221;48.858;10.128;2023-09-19T16:11:15;3.07;;;2.53;;
6376;SDS011;3221;48.858;10.128;2023-09-19T16:13:44;2.93;;;2.40;;
6376;SDS011;3221;48.858;10.128;2023-09-19T16:16:12;3.47;;;2.30;;
6376;SDS011;3221;48.858;10.128;2023-09-19T16:18:55;2.90;;;2.60;;
6376;SDS011;3221;48.858;10.128;2023-09-19T16:21:28;2.90;;;2.60;;
6376;SDS011;3221;48.858;10.128;2023-09-19T16:23:59;4.33;;;2.40;;
6376;SDS011;3221;48.858;10.128;2023-09-19T16:26:27;3.30;;;2.57;;
6376;SDS011;3221;48.858;10.128;2023-09-19T16:28:57;2.67;;;2.40;;
6376;SDS011;3221;48.858;10.128;2023-09-19T16:31:28;5.53;;;2.40;;
6376;SDS011;3221;48.858;10.128;2023-09-19T16:33:57;2.13;;;1.90;;
6376;SDS011;3221;48.858;10.128;2023-09-19T16:36:26;3.03;;;2.30;;
6376;SDS011;3221;48.858;10.128;2023-09-19T16:38:54;2.60;;;2.23;;
6376;SDS011;3221;48.858;10.128;2023-09-19T16:41:21;2.70;;;2.50;;